createdAt,value
2016-10-25T00:00:23.545Z,15.16
2016-10-25T00:01:04.017Z,15.2
2016-10-25T00:01:44.527Z,15.23
2016-10-25T00:02:24.950Z,15.2
2016-10-25T00:03:05.299Z,15.21
2016-10-25T00:03:45.775Z,15.01
2016-10-25T00:04:26.196Z,15.1
2016-10-25T00:05:06.667Z,15.16
2016-10-25T00:05:47.119Z,15.07
2016-10-25T00:06:27.535Z,15.06
2016-10-25T00:07:07.969Z,15.01
2016-10-25T00:07:48.402Z,15.07
2016-10-25T00:08:28.857Z,15.07
2016-10-25T00:09:09.423Z,15.09
2016-10-25T00:09:49.864Z,14.95
2016-10-25T00:10:30.359Z,15.02
2016-10-25T00:11:10.751Z,14.98
2016-10-25T00:11:51.208Z,14.95
2016-10-25T00:12:31.647Z,15.01
2016-10-25T00:13:12.108Z,15.01
2016-10-25T00:13:52.550Z,14.99
2016-10-25T00:14:32.999Z,14.98
2016-10-25T00:15:13.450Z,15.06
2016-10-25T00:15:53.867Z,15.11
2016-10-25T00:16:34.367Z,15.03
2016-10-25T00:17:14.778Z,15.09
2016-10-25T00:17:55.247Z,15.1
2016-10-25T00:18:35.751Z,15.07
2016-10-25T00:19:16.158Z,15.01
2016-10-25T00:19:56.625Z,15.03
2016-10-25T00:20:37.094Z,14.91
2016-10-25T00:21:17.541Z,15.03
2016-10-25T00:21:57.989Z,15.02
2016-10-25T00:22:38.451Z,15.03
2016-10-25T00:23:18.906Z,15.07
2016-10-25T00:23:59.328Z,15.02
2016-10-25T00:24:39.799Z,15.06
2016-10-25T00:25:20.255Z,15.02
2016-10-25T00:26:00.700Z,15.02
2016-10-25T00:26:41.156Z,15.01
2016-10-25T00:27:21.608Z,14.96
2016-10-25T00:28:02.038Z,15.03
2016-10-25T00:28:42.492Z,15.03
2016-10-25T00:29:22.938Z,14.95
2016-10-25T00:30:03.323Z,14.91
2016-10-25T00:30:43.813Z,14.95
2016-10-25T00:31:24.241Z,14.89
2016-10-25T00:32:04.699Z,14.84
2016-10-25T00:32:45.190Z,14.96
2016-10-25T00:33:25.648Z,14.89
2016-10-25T00:34:06.076Z,14.94
2016-10-25T00:34:46.588Z,14.88
2016-10-25T00:35:27.086Z,14.86
2016-10-25T00:36:07.539Z,15.01
2016-10-25T00:36:47.939Z,14.95
2016-10-25T00:37:28.377Z,15.01
2016-10-25T00:38:08.824Z,15.07
2016-10-25T00:38:49.387Z,15.03
2016-10-25T00:39:29.814Z,14.96
2016-10-25T00:40:10.256Z,14.95
2016-10-25T00:40:50.710Z,15.01
2016-10-25T00:41:31.168Z,15.06
2016-10-25T00:42:11.620Z,15.01
2016-10-25T00:42:52.102Z,15.01
2016-10-25T00:43:32.549Z,14.99
2016-10-25T00:44:12.981Z,14.94
2016-10-25T00:44:53.428Z,14.96
2016-10-25T00:45:33.871Z,14.92
2016-10-25T00:46:14.313Z,14.96
2016-10-25T00:46:54.781Z,14.91
2016-10-25T00:47:35.191Z,14.92
2016-10-25T00:48:15.683Z,14.92
2016-10-25T00:48:56.137Z,14.86
2016-10-25T00:49:36.550Z,14.94
2016-10-25T00:50:17.033Z,14.86
2016-10-25T00:50:57.468Z,14.84
2016-10-25T00:51:37.909Z,14.88
2016-10-25T00:52:18.386Z,14.83
2016-10-25T00:52:58.804Z,14.88
2016-10-25T00:53:39.252Z,14.86
2016-10-25T00:54:19.719Z,14.92
2016-10-25T00:55:00.182Z,14.89
2016-10-25T00:55:40.636Z,14.91
2016-10-25T00:56:21.048Z,14.89
2016-10-25T00:57:01.484Z,14.84
2016-10-25T00:57:41.906Z,14.81
2016-10-25T00:58:22.360Z,14.83
2016-10-25T00:59:02.797Z,14.77
2016-10-25T00:59:43.220Z,14.86
2016-10-25T01:00:23.701Z,14.88
2016-10-25T01:01:04.170Z,14.81
2016-10-25T01:01:44.558Z,14.81
2016-10-25T01:02:25.011Z,14.89
2016-10-25T01:03:05.468Z,14.91
2016-10-25T01:03:45.916Z,14.88
2016-10-25T01:04:26.351Z,14.83
2016-10-25T01:05:06.830Z,14.88
2016-10-25T01:05:47.298Z,14.86
2016-10-25T01:06:27.758Z,14.84
2016-10-25T01:07:08.164Z,14.86
2016-10-25T01:07:48.644Z,14.94
2016-10-25T01:08:29.094Z,14.84
2016-10-25T01:09:09.644Z,14.91
2016-10-25T01:09:50.062Z,14.94
2016-10-25T01:10:30.563Z,14.99
2016-10-25T01:11:11.028Z,14.99
2016-10-25T01:11:51.431Z,15.03
2016-10-25T01:12:32.011Z,15.03
2016-10-25T01:13:13.389Z,15.02
2016-10-25T01:13:52.896Z,15.06
2016-10-25T01:14:33.339Z,14.98
2016-10-25T01:15:13.757Z,15.07
2016-10-25T01:15:54.247Z,15.13
2016-10-25T01:16:34.700Z,15.07
2016-10-25T01:17:15.199Z,15.09
2016-10-25T01:17:55.623Z,15.1
2016-10-25T01:18:36.057Z,15.06
2016-10-25T01:19:16.486Z,15.16
2016-10-25T01:19:56.941Z,15.16
2016-10-25T01:20:37.386Z,15.17
2016-10-25T01:21:17.882Z,15.25
2016-10-25T01:21:58.308Z,15.2
2016-10-25T01:22:38.795Z,15.2
2016-10-25T01:23:19.238Z,15.25
2016-10-25T01:23:59.712Z,15.27
2016-10-25T01:24:40.134Z,15.21
2016-10-25T01:25:20.636Z,15.25
2016-10-25T01:26:01.040Z,15.21
2016-10-25T01:26:41.455Z,15.31
2016-10-25T01:27:21.929Z,15.34
2016-10-25T01:28:02.382Z,15.35
2016-10-25T01:28:42.864Z,15.35
2016-10-25T01:29:23.272Z,15.31
2016-10-25T01:30:03.721Z,15.41
2016-10-25T01:30:44.180Z,15.39
2016-10-25T01:31:24.652Z,15.36
2016-10-25T01:32:05.098Z,15.39
2016-10-25T01:32:45.590Z,15.39
2016-10-25T01:33:26.009Z,15.38
2016-10-25T01:34:06.455Z,15.36
2016-10-25T01:34:46.931Z,15.36
2016-10-25T01:35:27.373Z,15.38
2016-10-25T01:36:07.836Z,15.31
2016-10-25T01:36:48.281Z,15.35
2016-10-25T01:37:28.726Z,15.36
2016-10-25T01:38:09.180Z,15.38
2016-10-25T01:38:49.646Z,15.34
2016-10-25T01:39:30.076Z,15.29
2016-10-25T01:40:10.523Z,15.39
2016-10-25T01:40:50.985Z,15.36
2016-10-25T01:41:31.453Z,15.41
2016-10-25T01:42:11.852Z,15.41
2016-10-25T01:42:52.289Z,15.36
2016-10-25T01:43:32.777Z,15.32
2016-10-25T01:44:13.190Z,15.28
2016-10-25T01:44:53.636Z,15.34
2016-10-25T01:45:34.079Z,15.32
2016-10-25T01:46:14.548Z,15.28
2016-10-25T01:46:54.982Z,15.21
2016-10-25T01:47:35.416Z,15.19
2016-10-25T01:48:15.903Z,15.27
2016-10-25T01:48:56.325Z,15.31
2016-10-25T01:49:36.761Z,15.28
2016-10-25T01:50:17.217Z,15.23
2016-10-25T01:50:57.651Z,15.27
2016-10-25T01:51:38.119Z,15.31
2016-10-25T01:52:18.521Z,15.23
2016-10-25T01:52:58.988Z,15.28
2016-10-25T01:53:39.457Z,15.29
2016-10-25T01:54:19.910Z,15.43
2016-10-25T01:55:00.399Z,15.38
2016-10-25T01:55:40.843Z,15.44
2016-10-25T01:56:21.269Z,15.39
2016-10-25T01:57:01.741Z,15.43
2016-10-25T01:57:42.201Z,15.39
2016-10-25T01:58:22.652Z,15.43
2016-10-25T01:59:03.072Z,15.46
2016-10-25T01:59:43.578Z,15.49
2016-10-25T02:00:24.026Z,15.44
2016-10-25T02:01:04.487Z,15.39
2016-10-25T02:01:44.911Z,15.47
2016-10-25T02:02:25.369Z,15.38
2016-10-25T02:03:05.770Z,15.41
2016-10-25T02:03:46.235Z,15.46
2016-10-25T02:04:26.705Z,15.5
2016-10-25T02:05:07.157Z,15.51
2016-10-25T02:05:47.601Z,15.51
2016-10-25T02:06:28.281Z,15.57
2016-10-25T02:07:08.693Z,15.6
2016-10-25T02:07:49.174Z,15.56
2016-10-25T02:08:29.583Z,15.57
2016-10-25T02:09:10.043Z,15.57
2016-10-25T02:09:50.550Z,15.57
2016-10-25T02:10:31.024Z,15.65
2016-10-25T02:11:11.505Z,15.6
2016-10-25T02:11:51.907Z,15.64
2016-10-25T02:12:32.422Z,15.65
2016-10-25T02:13:12.788Z,15.69
2016-10-25T02:13:53.223Z,15.69
2016-10-25T02:14:33.677Z,15.71
2016-10-25T02:15:14.145Z,15.75
2016-10-25T02:15:54.571Z,15.72
2016-10-25T02:16:35.028Z,15.74
2016-10-25T02:17:15.503Z,15.74
2016-10-25T02:17:55.945Z,15.72
2016-10-25T02:18:36.419Z,15.76
2016-10-25T02:19:16.843Z,15.8
2016-10-25T02:19:57.271Z,15.82
2016-10-25T02:20:37.719Z,15.76
2016-10-25T02:21:18.150Z,15.72
2016-10-25T02:21:58.636Z,15.76
2016-10-25T02:22:39.075Z,15.72
2016-10-25T02:23:19.499Z,15.86
2016-10-25T02:23:59.978Z,15.72
2016-10-25T02:24:40.411Z,15.76
2016-10-25T02:25:20.861Z,15.6
2016-10-25T02:26:01.292Z,15.62
2016-10-25T02:26:41.747Z,15.75
2016-10-25T02:27:22.185Z,15.74
2016-10-25T02:28:02.607Z,15.71
2016-10-25T02:28:43.058Z,15.74
2016-10-25T02:29:23.531Z,15.74
2016-10-25T02:30:03.948Z,15.74
2016-10-25T02:30:44.388Z,15.72
2016-10-25T02:31:24.843Z,15.86
2016-10-25T02:32:05.275Z,15.74
2016-10-25T02:32:45.719Z,15.75
2016-10-25T02:33:26.201Z,15.84
2016-10-25T02:34:06.598Z,15.75
2016-10-25T02:34:47.026Z,15.84
2016-10-25T02:35:27.488Z,15.75
2016-10-25T02:36:07.923Z,15.78
2016-10-25T02:36:48.351Z,15.86
2016-10-25T02:37:28.820Z,15.78
2016-10-25T02:38:09.252Z,15.75
2016-10-25T02:38:49.700Z,15.84
2016-10-25T02:39:30.142Z,15.8
2016-10-25T02:40:10.665Z,15.75
2016-10-25T02:40:51.048Z,15.84
2016-10-25T02:41:31.540Z,15.76
2016-10-25T02:42:12.003Z,15.78
2016-10-25T02:42:52.369Z,15.87
2016-10-25T02:43:32.807Z,15.8
2016-10-25T02:44:13.292Z,15.76
2016-10-25T02:44:53.718Z,15.82
2016-10-25T02:45:34.179Z,15.82
2016-10-25T02:46:14.611Z,15.8
2016-10-25T02:46:55.083Z,15.76
2016-10-25T02:47:35.504Z,15.84
2016-10-25T02:48:15.947Z,15.82
2016-10-25T02:48:56.404Z,15.84
2016-10-25T02:49:36.843Z,15.86
2016-10-25T02:50:17.286Z,15.83
2016-10-25T02:50:57.710Z,15.83
2016-10-25T02:51:38.171Z,15.78
2016-10-25T02:52:18.627Z,15.84
2016-10-25T02:52:59.082Z,15.87
2016-10-25T02:53:39.517Z,15.84
2016-10-25T02:54:19.935Z,15.83
2016-10-25T02:55:00.373Z,15.84
2016-10-25T02:55:40.898Z,15.84
2016-10-25T02:56:21.290Z,15.84
2016-10-25T02:57:01.760Z,15.96
2016-10-25T02:57:42.245Z,15.84
2016-10-25T02:58:22.737Z,15.9
2016-10-25T02:59:03.195Z,15.94
2016-10-25T02:59:43.589Z,15.97
2016-10-25T03:00:24.055Z,15.86
2016-10-25T03:01:04.459Z,15.83
2016-10-25T03:01:44.907Z,15.92
2016-10-25T03:02:25.370Z,15.93
2016-10-25T03:03:05.834Z,15.89
2016-10-25T03:03:46.252Z,15.92
2016-10-25T03:04:26.712Z,15.9
2016-10-25T03:05:07.143Z,15.93
2016-10-25T03:05:47.610Z,15.94
2016-10-25T03:06:28.011Z,15.93
2016-10-25T03:07:08.473Z,15.94
2016-10-25T03:07:48.950Z,15.89
2016-10-25T03:08:29.400Z,15.93
2016-10-25T03:09:09.831Z,15.92
2016-10-25T03:09:50.284Z,15.9
2016-10-25T03:10:30.751Z,15.93
2016-10-25T03:11:11.215Z,15.94
2016-10-25T03:11:51.653Z,15.9
2016-10-25T03:12:32.080Z,15.86
2016-10-25T03:13:12.493Z,15.9
2016-10-25T03:13:53.006Z,15.92
2016-10-25T03:14:33.447Z,15.92
2016-10-25T03:15:13.875Z,15.92
2016-10-25T03:15:54.338Z,15.93
2016-10-25T03:16:34.792Z,15.86
2016-10-25T03:17:15.247Z,15.82
2016-10-25T03:17:55.652Z,15.86
2016-10-25T03:18:36.098Z,15.86
2016-10-25T03:19:16.552Z,15.84
2016-10-25T03:19:56.954Z,15.87
2016-10-25T03:20:37.453Z,15.82
2016-10-25T03:21:17.872Z,15.84
2016-10-25T03:21:58.296Z,15.82
2016-10-25T03:22:38.743Z,15.83
2016-10-25T03:23:19.221Z,15.86
2016-10-25T03:23:59.632Z,15.83
2016-10-25T03:24:40.152Z,15.89
2016-10-25T03:25:20.571Z,15.96
2016-10-25T03:26:00.995Z,15.83
2016-10-25T03:26:41.460Z,15.89
2016-10-25T03:27:21.916Z,15.87
2016-10-25T03:28:02.320Z,15.89
2016-10-25T03:28:42.756Z,15.92
2016-10-25T03:29:23.194Z,15.89
2016-10-25T03:30:03.700Z,15.96
2016-10-25T03:30:44.131Z,15.86
2016-10-25T03:31:24.528Z,15.94
2016-10-25T03:32:04.994Z,15.89
2016-10-25T03:32:45.391Z,15.92
2016-10-25T03:33:25.857Z,15.92
2016-10-25T03:34:06.291Z,15.9
2016-10-25T03:34:46.742Z,15.93
2016-10-25T03:35:27.187Z,15.92
2016-10-25T03:36:07.630Z,15.94
2016-10-25T03:36:48.085Z,15.89
2016-10-25T03:37:28.567Z,15.89
2016-10-25T03:38:09.036Z,15.94
2016-10-25T03:38:49.455Z,15.89
2016-10-25T03:39:29.886Z,15.92
2016-10-25T03:40:10.338Z,15.92
2016-10-25T03:40:50.784Z,15.92
2016-10-25T03:41:31.256Z,15.94
2016-10-25T03:42:11.774Z,15.96
2016-10-25T03:42:52.212Z,15.94
2016-10-25T03:43:32.691Z,15.93
2016-10-25T03:44:13.088Z,15.89
2016-10-25T03:44:53.555Z,15.89
2016-10-25T03:45:33.964Z,15.83
2016-10-25T03:46:14.424Z,15.94
2016-10-25T03:46:54.868Z,15.89
2016-10-25T03:47:35.330Z,15.83
2016-10-25T03:48:15.758Z,15.87
2016-10-25T03:48:56.200Z,15.86
2016-10-25T03:49:36.752Z,15.82
2016-10-25T03:50:17.156Z,15.72
2016-10-25T03:50:57.584Z,15.74
2016-10-25T03:51:38.065Z,15.84
2016-10-25T03:52:18.572Z,15.84
2016-10-25T03:52:58.982Z,15.84
2016-10-25T03:53:39.414Z,15.84
2016-10-25T03:54:19.868Z,15.82
2016-10-25T03:55:00.323Z,15.86
2016-10-25T03:55:40.740Z,15.86
2016-10-25T03:56:21.193Z,15.72
2016-10-25T03:57:01.566Z,15.72
2016-10-25T03:57:42.009Z,15.74
2016-10-25T03:58:22.473Z,15.74
2016-10-25T03:59:02.889Z,15.78
2016-10-25T03:59:43.368Z,15.74
2016-10-25T04:00:23.829Z,15.78
2016-10-25T04:01:04.254Z,15.72
2016-10-25T04:01:44.737Z,15.72
2016-10-25T04:02:25.199Z,15.68
2016-10-25T04:03:05.613Z,15.62
2016-10-25T04:03:46.059Z,15.71
2016-10-25T04:04:26.510Z,15.62
2016-10-25T04:05:06.979Z,15.65
2016-10-25T04:05:47.411Z,15.71
2016-10-25T04:06:27.839Z,15.72
2016-10-25T04:07:08.280Z,15.69
2016-10-25T04:07:48.721Z,15.71
2016-10-25T04:08:29.169Z,15.69
2016-10-25T04:09:09.609Z,15.67
2016-10-25T04:09:50.032Z,15.69
2016-10-25T04:10:30.527Z,15.71
2016-10-25T04:11:10.976Z,15.65
2016-10-25T04:11:51.451Z,15.67
2016-10-25T04:12:31.857Z,15.65
2016-10-25T04:13:12.294Z,15.64
2016-10-25T04:13:52.747Z,15.68
2016-10-25T04:14:33.180Z,15.67
2016-10-25T04:15:13.600Z,15.62
2016-10-25T04:15:54.076Z,15.69
2016-10-25T04:16:34.531Z,15.64
2016-10-25T04:17:14.972Z,15.65
2016-10-25T04:17:55.424Z,15.57
2016-10-25T04:18:35.854Z,15.49
2016-10-25T04:19:16.319Z,15.47
2016-10-25T04:19:56.757Z,15.56
2016-10-25T04:20:37.179Z,15.5
2016-10-25T04:21:17.620Z,15.51
2016-10-25T04:21:58.093Z,15.51
2016-10-25T04:22:38.512Z,15.51
2016-10-25T04:23:19.011Z,15.49
2016-10-25T04:23:59.453Z,15.5
2016-10-25T04:24:39.879Z,15.5
2016-10-25T04:25:20.350Z,15.41
2016-10-25T04:26:00.790Z,15.39
2016-10-25T04:26:41.237Z,15.46
2016-10-25T04:27:21.709Z,15.44
2016-10-25T04:28:02.138Z,15.38
2016-10-25T04:28:42.592Z,15.43
2016-10-25T04:29:23.053Z,15.44
2016-10-25T04:30:03.485Z,15.32
2016-10-25T04:30:43.936Z,15.43
2016-10-25T04:31:24.360Z,15.36
2016-10-25T04:32:04.781Z,15.38
2016-10-25T04:32:45.213Z,15.39
2016-10-25T04:33:25.643Z,15.44
2016-10-25T04:34:06.112Z,15.44
2016-10-25T04:34:46.537Z,15.44
2016-10-25T04:35:26.987Z,15.41
2016-10-25T04:36:07.406Z,15.41
2016-10-25T04:36:47.885Z,15.5
2016-10-25T04:37:28.295Z,15.38
2016-10-25T04:38:08.816Z,15.49
2016-10-25T04:38:49.342Z,15.39
2016-10-25T04:39:29.752Z,15.41
2016-10-25T04:40:10.193Z,15.5
2016-10-25T04:40:50.634Z,15.47
2016-10-25T04:41:31.056Z,15.47
2016-10-25T04:42:11.537Z,15.57
2016-10-25T04:42:51.990Z,15.56
2016-10-25T04:43:32.417Z,15.5
2016-10-25T04:44:12.871Z,15.51
2016-10-25T04:44:53.335Z,15.49
2016-10-25T04:45:33.809Z,15.5
2016-10-25T04:46:14.225Z,15.5
2016-10-25T04:46:54.627Z,15.46
2016-10-25T04:47:35.057Z,15.5
2016-10-25T04:48:15.535Z,15.47
2016-10-25T04:48:55.978Z,15.51
2016-10-25T04:49:36.423Z,15.5
2016-10-25T04:50:16.895Z,15.57
2016-10-25T04:50:57.307Z,15.51
2016-10-25T04:51:37.783Z,15.49
2016-10-25T04:52:18.197Z,15.38
2016-10-25T04:52:58.691Z,15.39
2016-10-25T04:53:39.103Z,15.35
2016-10-25T04:54:19.543Z,15.5
2016-10-25T04:55:00.071Z,15.36
2016-10-25T04:55:40.502Z,15.49
2016-10-25T04:56:20.915Z,15.38
2016-10-25T04:57:01.374Z,15.43
2016-10-25T04:57:41.785Z,15.46
2016-10-25T04:58:22.270Z,15.38
2016-10-25T04:59:02.707Z,15.46
2016-10-25T04:59:43.156Z,15.43
2016-10-25T05:00:23.577Z,15.43
2016-10-25T05:01:04.033Z,15.39
2016-10-25T05:01:44.435Z,15.44
2016-10-25T05:02:24.892Z,15.43
2016-10-25T05:03:05.336Z,15.44
2016-10-25T05:03:45.780Z,15.5
2016-10-25T05:04:26.209Z,15.38
2016-10-25T05:05:06.660Z,15.38
2016-10-25T05:05:47.096Z,15.43
2016-10-25T05:06:27.563Z,15.44
2016-10-25T05:07:08.013Z,15.36
2016-10-25T05:07:48.454Z,15.43
2016-10-25T05:08:28.935Z,15.5
2016-10-25T05:09:09.360Z,15.49
2016-10-25T05:09:49.797Z,15.54
2016-10-25T05:10:30.242Z,15.62
2016-10-25T05:11:10.702Z,15.68
2016-10-25T05:11:51.193Z,15.84
2016-10-25T05:12:31.640Z,15.82
2016-10-25T05:13:12.061Z,15.93
2016-10-25T05:13:52.530Z,15.94
2016-10-25T05:14:32.949Z,16
2016-10-25T05:15:13.908Z,16.09
2016-10-25T05:15:54.307Z,16.11
2016-10-25T05:16:34.749Z,16.08
2016-10-25T05:17:15.237Z,16.14
2016-10-25T05:17:55.705Z,16.23
2016-10-25T05:18:36.144Z,16.3
2016-10-25T05:19:16.594Z,16.42
2016-10-25T05:19:56.990Z,16.43
2016-10-25T05:20:37.421Z,16.43
2016-10-25T05:21:17.881Z,16.38
2016-10-25T05:21:58.373Z,16.35
2016-10-25T05:22:38.829Z,16.31
2016-10-25T05:23:19.264Z,16.34
2016-10-25T05:24:00.667Z,16.27
2016-10-25T05:24:41.105Z,16.3
2016-10-25T05:25:21.538Z,16.45
2016-10-25T05:26:02.016Z,16.39
2016-10-25T05:26:42.480Z,16.42
2016-10-25T05:27:22.925Z,16.41
2016-10-25T05:28:03.371Z,16.52
2016-10-25T05:28:43.978Z,16.57
2016-10-25T05:29:24.423Z,16.53
2016-10-25T05:30:04.883Z,16.61
2016-10-25T05:30:45.365Z,16.53
2016-10-25T05:31:25.858Z,16.42
2016-10-25T05:32:06.327Z,16.52
2016-10-25T05:32:46.761Z,16.6
2016-10-25T05:33:27.241Z,16.52
2016-10-25T05:34:07.706Z,16.43
2016-10-25T05:34:48.256Z,16.52
2016-10-25T05:35:28.725Z,16.45
2016-10-25T05:36:09.210Z,16.38
2016-10-25T05:36:49.705Z,16.46
2016-10-25T05:37:30.160Z,16.42
2016-10-25T05:38:10.648Z,16.45
2016-10-25T05:38:51.096Z,16.43
2016-10-25T05:39:31.541Z,16.41
2016-10-25T05:40:11.996Z,16.49
2016-10-25T05:40:52.610Z,16.56
2016-10-25T05:41:33.024Z,16.58
2016-10-25T05:42:13.442Z,16.52
2016-10-25T05:42:53.821Z,16.49
2016-10-25T05:43:34.362Z,16.5
2016-10-25T05:44:14.814Z,16.49
2016-10-25T05:44:55.276Z,16.5
2016-10-25T05:45:35.778Z,16.39
2016-10-25T05:46:16.226Z,16.39
2016-10-25T05:46:56.799Z,16.34
2016-10-25T05:47:37.456Z,16.28
2016-10-25T05:48:17.887Z,16.31
2016-10-25T05:48:58.325Z,16.25
2016-10-25T05:49:38.714Z,16.27
2016-10-25T05:50:19.389Z,16.24
2016-10-25T05:50:59.814Z,16.28
2016-10-25T05:51:40.234Z,16.33
2016-10-25T05:52:20.703Z,16.35
2016-10-25T05:53:01.154Z,16.42
2016-10-25T05:53:41.559Z,16.31
2016-10-25T05:54:21.982Z,16.25
2016-10-25T05:55:02.434Z,16.27
2016-10-25T05:55:42.861Z,16.3
2016-10-25T05:56:23.308Z,16.25
2016-10-25T05:57:03.806Z,16.33
2016-10-25T05:57:44.256Z,16.25
2016-10-25T05:58:24.751Z,16.31
2016-10-25T05:59:05.222Z,16.34
2016-10-25T05:59:45.650Z,16.33
2016-10-25T06:00:26.080Z,16.39
2016-10-25T06:01:06.544Z,16.31
2016-10-25T06:01:46.978Z,16.31
2016-10-25T06:02:27.434Z,16.33
2016-10-25T06:03:07.911Z,16.38
2016-10-25T06:03:48.351Z,16.45
2016-10-25T06:04:28.779Z,16.49
2016-10-25T06:05:09.215Z,16.56
2016-10-25T06:05:49.673Z,16.52
2016-10-25T06:06:30.127Z,16.57
2016-10-25T06:07:10.554Z,16.61
2016-10-25T06:07:50.991Z,16.56
2016-10-25T06:08:31.457Z,16.61
2016-10-25T06:09:11.924Z,16.64
2016-10-25T06:09:52.412Z,16.67
2016-10-25T06:10:32.900Z,16.75
2016-10-25T06:11:13.367Z,16.7
2016-10-25T06:11:53.722Z,16.71
2016-10-25T06:12:34.183Z,16.79
2016-10-25T06:13:14.644Z,16.81
2016-10-25T06:13:55.111Z,16.94
2016-10-25T06:14:35.546Z,16.93
2016-10-25T06:15:16.004Z,16.98
2016-10-25T06:15:56.407Z,16.94
2016-10-25T06:16:36.937Z,16.86
2016-10-25T06:17:17.363Z,16.94
2016-10-25T06:17:57.834Z,16.98
2016-10-25T06:18:38.345Z,17
2016-10-25T06:19:18.885Z,17.06
2016-10-25T06:19:59.289Z,17.06
2016-10-25T06:20:39.797Z,17.11
2016-10-25T06:21:20.237Z,17.12
2016-10-25T06:22:00.708Z,17.11
2016-10-25T06:22:41.164Z,17.21
2016-10-25T06:23:21.638Z,17.22
2016-10-25T06:24:02.098Z,17.31
2016-10-25T06:24:42.682Z,17.3
2016-10-25T06:25:23.074Z,17.23
2016-10-25T06:26:03.615Z,17.28
2016-10-25T06:26:44.046Z,17.28
2016-10-25T06:27:24.502Z,17.34
2016-10-25T06:28:05.062Z,17.18
2016-10-25T06:28:45.455Z,17.21
2016-10-25T06:29:26.131Z,17.23
2016-10-25T06:30:06.466Z,17.21
2016-10-25T06:30:46.986Z,17.28
2016-10-25T06:31:27.489Z,17.37
2016-10-25T06:32:07.881Z,17.38
2016-10-25T06:32:48.358Z,17.41
2016-10-25T06:33:28.833Z,17.36
2016-10-25T06:34:09.406Z,17.37
2016-10-25T06:34:49.931Z,17.43
2016-10-25T06:35:30.309Z,17.41
2016-10-25T06:36:10.877Z,17.43
2016-10-25T06:36:51.257Z,17.51
2016-10-25T06:37:31.930Z,17.48
2016-10-25T06:38:12.207Z,17.52
2016-10-25T06:38:52.771Z,17.55
2016-10-25T06:39:33.076Z,17.49
2016-10-25T06:40:13.590Z,17.52
2016-10-25T06:40:54.402Z,17.49
2016-10-25T06:41:34.819Z,17.54
2016-10-25T06:42:15.259Z,17.54
2016-10-25T06:42:55.795Z,17.58
2016-10-25T06:43:36.252Z,17.51
2016-10-25T06:44:16.662Z,17.52
2016-10-25T06:44:57.177Z,17.56
2016-10-25T06:45:37.611Z,17.59
2016-10-25T06:46:18.076Z,17.56
2016-10-25T06:46:58.535Z,17.56
2016-10-25T06:47:39.007Z,17.56
2016-10-25T06:48:19.468Z,17.54
2016-10-25T06:48:59.947Z,17.62
2016-10-25T06:49:40.417Z,17.63
2016-10-25T06:50:20.894Z,17.66
2016-10-25T06:51:01.395Z,17.68
2016-10-25T06:51:41.805Z,17.59
2016-10-25T06:52:22.254Z,17.55
2016-10-25T06:53:02.731Z,17.58
2016-10-25T06:53:43.202Z,17.55
2016-10-25T06:54:23.654Z,17.56
2016-10-25T06:55:04.101Z,17.49
2016-10-25T06:55:44.570Z,17.54
2016-10-25T06:56:25.062Z,17.66
2016-10-25T06:57:05.513Z,17.66
2016-10-25T06:57:45.943Z,17.75
2016-10-25T06:58:26.358Z,17.78
2016-10-25T06:59:06.801Z,17.81
2016-10-25T06:59:47.253Z,17.92
2016-10-25T07:00:27.713Z,17.87
2016-10-25T07:01:08.304Z,17.99
2016-10-25T07:01:48.801Z,17.97
2016-10-25T07:02:29.313Z,17.92
2016-10-25T07:03:09.770Z,17.95
2016-10-25T07:03:50.227Z,17.95
2016-10-25T07:04:30.695Z,17.92
2016-10-25T07:05:11.137Z,17.99
2016-10-25T07:05:51.594Z,17.99
2016-10-25T07:06:32.048Z,18
2016-10-25T07:07:12.486Z,18.08
2016-10-25T07:07:52.959Z,18.1
2016-10-25T07:08:33.413Z,18.11
2016-10-25T07:09:13.878Z,18.1
2016-10-25T07:09:54.340Z,18.11
2016-10-25T07:10:34.829Z,18.1
2016-10-25T07:11:15.368Z,18.05
2016-10-25T07:11:55.840Z,17.95
2016-10-25T07:12:36.308Z,17.99
2016-10-25T07:13:16.775Z,17.82
2016-10-25T07:13:57.282Z,17.89
2016-10-25T07:14:37.720Z,17.92
2016-10-25T07:15:18.183Z,17.74
2016-10-25T07:15:58.709Z,17.74
2016-10-25T07:16:39.143Z,17.72
2016-10-25T07:17:19.597Z,17.62
2016-10-25T07:18:00.046Z,17.66
2016-10-25T07:18:40.566Z,17.63
2016-10-25T07:19:20.968Z,17.56
2016-10-25T07:20:01.462Z,17.59
2016-10-25T07:20:41.911Z,17.64
2016-10-25T07:21:22.362Z,17.66
2016-10-25T07:22:02.855Z,17.56
2016-10-25T07:22:43.360Z,17.59
2016-10-25T07:23:23.790Z,17.56
2016-10-25T07:24:04.208Z,17.55
2016-10-25T07:24:44.689Z,17.48
2016-10-25T07:25:25.129Z,17.54
2016-10-25T07:26:05.598Z,17.49
2016-10-25T07:26:46.039Z,17.49
2016-10-25T07:27:26.503Z,17.55
2016-10-25T07:28:06.956Z,17.54
2016-10-25T07:28:47.436Z,17.52
2016-10-25T07:29:27.865Z,17.56
2016-10-25T07:30:08.317Z,17.54
2016-10-25T07:30:48.789Z,17.46
2016-10-25T07:31:29.270Z,17.46
2016-10-25T07:32:09.724Z,17.41
2016-10-25T07:32:50.177Z,17.46
2016-10-25T07:33:30.654Z,17.43
2016-10-25T07:34:11.105Z,17.46
2016-10-25T07:34:51.561Z,17.48
2016-10-25T07:35:32.043Z,17.41
2016-10-25T07:36:12.569Z,17.51
2016-10-25T07:36:52.940Z,17.43
2016-10-25T07:37:33.396Z,17.49
2016-10-25T07:38:13.865Z,17.41
2016-10-25T07:38:54.344Z,17.36
2016-10-25T07:39:34.825Z,17.38
2016-10-25T07:40:15.320Z,17.48
2016-10-25T07:40:55.769Z,17.51
2016-10-25T07:41:36.231Z,17.51
2016-10-25T07:42:16.679Z,17.49
2016-10-25T07:42:57.140Z,17.41
2016-10-25T07:43:37.589Z,17.48
2016-10-25T07:44:18.062Z,17.44
2016-10-25T07:44:58.494Z,17.48
2016-10-25T07:45:38.925Z,17.46
2016-10-25T07:46:19.408Z,17.38
2016-10-25T07:46:59.867Z,17.36
2016-10-25T07:47:40.299Z,17.44
2016-10-25T07:48:20.751Z,17.43
2016-10-25T07:49:01.222Z,17.44
2016-10-25T07:49:41.665Z,17.41
2016-10-25T07:50:22.148Z,17.44
2016-10-25T07:51:02.640Z,17.51
2016-10-25T07:51:43.070Z,17.54
2016-10-25T07:52:23.581Z,17.58
2016-10-25T07:53:04.048Z,17.66
2016-10-25T07:53:44.524Z,17.63
2016-10-25T07:54:24.976Z,17.68
2016-10-25T07:55:05.470Z,17.74
2016-10-25T07:55:45.921Z,17.81
2016-10-25T07:56:26.351Z,17.74
2016-10-25T07:57:06.866Z,17.77
2016-10-25T07:57:47.333Z,17.79
2016-10-25T07:58:27.755Z,17.9
2016-10-25T07:59:08.213Z,17.92
2016-10-25T07:59:48.662Z,17.89
2016-10-25T08:00:29.111Z,18.03
2016-10-25T08:01:09.547Z,17.95
2016-10-25T08:01:50.022Z,17.93
2016-10-25T08:02:30.526Z,18.03
2016-10-25T08:03:10.985Z,17.96
2016-10-25T08:03:51.446Z,18.08
2016-10-25T08:04:31.914Z,18.1
2016-10-25T08:05:12.366Z,18.1
2016-10-25T08:05:53.003Z,18.11
2016-10-25T08:06:33.495Z,18.15
2016-10-25T08:07:13.959Z,18.26
2016-10-25T08:07:54.379Z,18.26
2016-10-25T08:08:34.833Z,18.35
2016-10-25T08:09:15.320Z,18.41
2016-10-25T08:09:55.773Z,18.42
2016-10-25T08:10:36.222Z,18.48
2016-10-25T08:11:16.680Z,18.37
2016-10-25T08:11:57.149Z,18.42
2016-10-25T08:12:37.625Z,18.48
2016-10-25T08:13:18.116Z,18.52
2016-10-25T08:13:58.613Z,18.62
2016-10-25T08:14:38.988Z,18.66
2016-10-25T08:15:19.411Z,18.57
2016-10-25T08:15:59.891Z,18.57
2016-10-25T08:16:40.347Z,18.63
2016-10-25T08:17:20.767Z,18.66
2016-10-25T08:18:01.241Z,18.66
2016-10-25T08:18:41.717Z,18.73
2016-10-25T08:19:22.141Z,18.6
2016-10-25T08:20:02.604Z,18.72
2016-10-25T08:20:43.072Z,18.75
2016-10-25T08:21:23.551Z,18.73
2016-10-25T08:22:03.998Z,18.8
2016-10-25T08:22:44.482Z,18.76
2016-10-25T08:23:24.937Z,18.76
2016-10-25T08:24:05.389Z,18.7
2016-10-25T08:24:45.878Z,18.65
2016-10-25T08:25:26.340Z,18.62
2016-10-25T08:26:06.797Z,18.66
2016-10-25T08:26:47.315Z,18.57
2016-10-25T08:27:27.730Z,18.55
2016-10-25T08:28:08.173Z,18.48
2016-10-25T08:28:48.627Z,18.52
2016-10-25T08:29:29.082Z,18.58
2016-10-25T08:30:09.579Z,18.54
2016-10-25T08:30:50.063Z,18.5
2016-10-25T08:31:30.514Z,18.51
2016-10-25T08:32:11.043Z,18.52
2016-10-25T08:32:51.460Z,18.54
2016-10-25T08:33:31.907Z,18.5
2016-10-25T08:34:12.357Z,18.48
2016-10-25T08:34:52.810Z,18.41
2016-10-25T08:35:33.238Z,18.51
2016-10-25T08:36:13.706Z,18.47
2016-10-25T08:36:54.163Z,18.36
2016-10-25T08:37:34.606Z,18.36
2016-10-25T08:38:15.083Z,18.44
2016-10-25T08:38:55.563Z,18.5
2016-10-25T08:39:36.053Z,18.47
2016-10-25T08:40:16.464Z,18.6
2016-10-25T08:40:56.932Z,18.54
2016-10-25T08:41:37.366Z,18.57
2016-10-25T08:42:17.826Z,18.55